Terminal Aerodrome Forecast
Issued by NWS Tallahassee, FL

Home | Current Version | Previous Version | Text Only | Print | Product List | Glossary On
Versions: 1 2 3 4 5 6 7 8 9 10 11 12 13 14 15 16 17 18 19 20 21 22 23
000
FTUS42 KTAE 192321
TAFTLH
TAF
KTLH 192321Z 2000/2024 15005KT P6SM SCT011 BKN120
     FM200200 20005KT P6SM OVC015
     FM200600 20004KT 5SM BR OVC007
     FM200900 20004KT 2SM BR OVC004
     FM201400 22010KT P6SM OVC025 PROB30 2015/2018 P6SM TSRA
      OVC025CB=

USA.gov is the U.S. government's official web portal to all federal, state and local government web resources and services.